Borba, Brazil
Current Conditions -  °F | °C
As of 10:00 AM on Thursday 30 Oct 2014 (Local Time) from SBPK Reporting Station
Few Clouds Few Clouds  
Wind Chill: 68°   Ceiling: Unl
Heat Index: 68°   Visibility: 6mi
Dew Point: 66°   Wind: 6mph
Humidity: 94%   Direction: 310°NW
Pressure: 29.77"   Gusts: NA
Location:  30.97°S, 52.38°W
Report Text: SBPK 301200Z 31005KT 9999 FEW010 20/19 Q1008
Loading
Personal Weather Stations






























Interactive Weather Map
Tropical Storm Tracking
New forecast layout! Learn more

10-Day Weather Forecast

Advertisements
Track Severe Weather on mobile